sensor_id;sensor_type;location;lat;lon;timestamp;temperature;humidity
7399;DHT22;3740;50.700;7.184;2022-09-13T00:01:10;18.10;99.90
7399;DHT22;3740;50.700;7.184;2022-09-13T00:03:55;18.00;99.90
7399;DHT22;3740;50.700;7.184;2022-09-13T00:06:41;18.00;99.90
7399;DHT22;3740;50.700;7.184;2022-09-13T00:09:27;17.90;99.90
7399;DHT22;3740;50.700;7.184;2022-09-13T00:12:13;17.90;99.90
7399;DHT22;3740;50.700;7.184;2022-09-13T00:15:00;17.90;99.90
7399;DHT22;3740;50.700;7.184;2022-09-13T00:17:46;17.90;99.90
7399;DHT22;3740;50.700;7.184;2022-09-13T00:20:32;17.80;99.90
7399;DHT22;3740;50.700;7.184;2022-09-13T00:23:18;17.80;99.90
7399;DHT22;3740;50.700;7.184;2022-09-13T00:26:10;17.80;99.90
7399;DHT22;3740;50.700;7.184;2022-09-13T00:28:57;17.70;99.90
7399;DHT22;3740;50.700;7.184;2022-09-13T00:31:43;17.70;99.90
7399;DHT22;3740;50.700;7.184;2022-09-13T00:34:29;17.70;99.90
7399;DHT22;3740;50.700;7.184;2022-09-13T00:37:15;17.70;99.90
7399;DHT22;3740;50.700;7.184;2022-09-13T00:40:02;17.60;99.90
7399;DHT22;3740;50.700;7.184;2022-09-13T00:42:48;17.60;99.90
7399;DHT22;3740;50.700;7.184;2022-09-13T00:45:34;17.60;99.90
7399;DHT22;3740;50.700;7.184;2022-09-13T00:48:21;17.60;99.90
7399;DHT22;3740;50.700;7.184;2022-09-13T00:51:09;17.60;99.90
7399;DHT22;3740;50.700;7.184;2022-09-13T00:53:56;17.60;99.90
7399;DHT22;3740;50.700;7.184;2022-09-13T00:56:48;17.60;99.90
7399;DHT22;3740;50.700;7.184;2022-09-13T00:59:58;17.60;99.90
7399;DHT22;3740;50.700;7.184;2022-09-13T01:02:54;17.60;99.90
7399;DHT22;3740;50.700;7.184;2022-09-13T01:06:21;17.70;99.90
7399;DHT22;3740;50.700;7.184;2022-09-13T01:09:10;17.70;99.90
7399;DHT22;3740;50.700;7.184;2022-09-13T01:12:01;17.80;99.90
7399;DHT22;3740;50.700;7.184;2022-09-13T01:14:49;17.90;99.90
7399;DHT22;3740;50.700;7.184;2022-09-13T01:17:36;17.90;99.90
7399;DHT22;3740;50.700;7.184;2022-09-13T01:23:55;17.90;99.90
7399;DHT22;3740;50.700;7.184;2022-09-13T01:33:24;17.90;99.90
7399;DHT22;3740;50.700;7.184;2022-09-13T01:48:34;17.80;99.90
7399;DHT22;3740;50.700;7.184;2022-09-13T01:51:36;17.80;99.90
7399;DHT22;3740;50.700;7.184;2022-09-13T01:57:34;17.80;99.90
7399;DHT22;3740;50.700;7.184;2022-09-13T02:00:22;17.90;99.90
7399;DHT22;3740;50.700;7.184;2022-09-13T02:03:28;17.90;99.90
7399;DHT22;3740;50.700;7.184;2022-09-13T02:06:21;17.90;99.90
7399;DHT22;3740;50.700;7.184;2022-09-13T02:09:15;18.00;99.90
7399;DHT22;3740;50.700;7.184;2022-09-13T02:12:09;18.00;99.90
7399;DHT22;3740;50.700;7.184;2022-09-13T02:15:13;18.00;99.90
7399;DHT22;3740;50.700;7.184;2022-09-13T02:18:19;18.00;99.90
7399;DHT22;3740;50.700;7.184;2022-09-13T02:21:27;18.00;99.90
7399;DHT22;3740;50.700;7.184;2022-09-13T02:24:20;18.00;99.90
7399;DHT22;3740;50.700;7.184;2022-09-13T02:27:14;17.90;99.90
7399;DHT22;3740;50.700;7.184;2022-09-13T02:30:05;17.90;99.90
7399;DHT22;3740;50.700;7.184;2022-09-13T02:33:00;17.90;99.90
7399;DHT22;3740;50.700;7.184;2022-09-13T02:35:53;17.80;99.90
7399;DHT22;3740;50.700;7.184;2022-09-13T02:38:51;17.80;99.90
7399;DHT22;3740;50.700;7.184;2022-09-13T02:44:57;17.70;99.90
7399;DHT22;3740;50.700;7.184;2022-09-13T02:48:09;17.60;99.90
7399;DHT22;3740;50.700;7.184;2022-09-13T02:51:06;17.60;99.90
7399;DHT22;3740;50.700;7.184;2022-09-13T02:54:25;17.70;99.90
7399;DHT22;3740;50.700;7.184;2022-09-13T03:00:34;17.70;99.90
7399;DHT22;3740;50.700;7.184;2022-09-13T03:03:20;17.70;99.90
7399;DHT22;3740;50.700;7.184;2022-09-13T03:06:06;17.80;99.90
7399;DHT22;3740;50.700;7.184;2022-09-13T03:08:53;17.80;99.90
7399;DHT22;3740;50.700;7.184;2022-09-13T03:15:16;17.70;99.90
7399;DHT22;3740;50.700;7.184;2022-09-13T03:21:19;17.90;99.90
7399;DHT22;3740;50.700;7.184;2022-09-13T03:24:28;18.00;99.90
7399;DHT22;3740;50.700;7.184;2022-09-13T03:27:49;18.00;99.90
7399;DHT22;3740;50.700;7.184;2022-09-13T03:30:42;18.00;99.90
7399;DHT22;3740;50.700;7.184;2022-09-13T03:36:29;18.00;99.90
7399;DHT22;3740;50.700;7.184;2022-09-13T03:45:30;18.00;99.90
7399;DHT22;3740;50.700;7.184;2022-09-13T03:48:18;18.00;99.90
7399;DHT22;3740;50.700;7.184;2022-09-13T03:51:06;18.00;99.90
7399;DHT22;3740;50.700;7.184;2022-09-13T03:53:58;18.00;99.90
7399;DHT22;3740;50.700;7.184;2022-09-13T03:57:12;18.00;99.90
7399;DHT22;3740;50.700;7.184;2022-09-13T03:59:58;18.00;99.90
7399;DHT22;3740;50.700;7.184;2022-09-13T04:02:44;18.00;99.90
7399;DHT22;3740;50.700;7.184;2022-09-13T04:05:30;18.00;99.90
7399;DHT22;3740;50.700;7.184;2022-09-13T04:08:16;18.00;99.90
7399;DHT22;3740;50.700;7.184;2022-09-13T04:11:02;18.00;99.90
7399;DHT22;3740;50.700;7.184;2022-09-13T04:13:48;18.00;99.90
7399;DHT22;3740;50.700;7.184;2022-09-13T04:16:33;18.00;99.90
7399;DHT22;3740;50.700;7.184;2022-09-13T04:19:20;18.00;99.90
7399;DHT22;3740;50.700;7.184;2022-09-13T04:22:06;18.00;99.90
7399;DHT22;3740;50.700;7.184;2022-09-13T04:24:52;18.00;99.90
7399;DHT22;3740;50.700;7.184;2022-09-13T04:27:38;18.00;99.90
7399;DHT22;3740;50.700;7.184;2022-09-13T04:30:24;18.00;99.90
7399;DHT22;3740;50.700;7.184;2022-09-13T04:33:10;18.00;99.90
7399;DHT22;3740;50.700;7.184;2022-09-13T04:35:59;18.00;99.90
7399;DHT22;3740;50.700;7.184;2022-09-13T04:38:45;17.90;99.90
7399;DHT22;3740;50.700;7.184;2022-09-13T04:41:32;18.00;99.90
7399;DHT22;3740;50.700;7.184;2022-09-13T04:44:19;18.00;99.90
7399;DHT22;3740;50.700;7.184;2022-09-13T04:47:07;17.90;99.90
7399;DHT22;3740;50.700;7.184;2022-09-13T04:49:53;18.00;99.90
7399;DHT22;3740;50.700;7.184;2022-09-13T04:52:39;17.90;99.90
7399;DHT22;3740;50.700;7.184;2022-09-13T04:55:25;17.90;99.90
7399;DHT22;3740;50.700;7.184;2022-09-13T04:58:11;18.00;99.90
7399;DHT22;3740;50.700;7.184;2022-09-13T05:01:04;18.00;99.90
7399;DHT22;3740;50.700;7.184;2022-09-13T05:03:51;18.00;99.90
7399;DHT22;3740;50.700;7.184;2022-09-13T05:06:39;18.00;99.90
7399;DHT22;3740;50.700;7.184;2022-09-13T05:09:25;18.00;99.90
7399;DHT22;3740;50.700;7.184;2022-09-13T05:12:12;18.00;99.90
7399;DHT22;3740;50.700;7.184;2022-09-13T05:14:58;18.00;99.90
7399;DHT22;3740;50.700;7.184;2022-09-13T05:17:43;18.00;99.90
7399;DHT22;3740;50.700;7.184;2022-09-13T05:20:29;18.00;99.90
7399;DHT22;3740;50.700;7.184;2022-09-13T05:23:15;18.10;99.90
7399;DHT22;3740;50.700;7.184;2022-09-13T05:26:03;18.10;99.90
7399;DHT22;3740;50.700;7.184;2022-09-13T05:28:50;18.10;99.90
7399;DHT22;3740;50.700;7.184;2022-09-13T05:31:38;18.10;99.90
7399;DHT22;3740;50.700;7.184;2022-09-13T05:34:24;18.10;99.90
7399;DHT22;3740;50.700;7.184;2022-09-13T05:37:10;18.20;99.90
7399;DHT22;3740;50.700;7.184;2022-09-13T05:39:55;18.20;99.90
7399;DHT22;3740;50.700;7.184;2022-09-13T05:42:41;18.30;99.90
7399;DHT22;3740;50.700;7.184;2022-09-13T05:45:27;18.30;99.90
7399;DHT22;3740;50.700;7.184;2022-09-13T05:48:13;18.30;99.90
7399;DHT22;3740;50.700;7.184;2022-09-13T05:51:10;18.30;99.90
7399;DHT22;3740;50.700;7.184;2022-09-13T05:53:57;18.30;99.90
7399;DHT22;3740;50.700;7.184;2022-09-13T05:56:43;18.30;99.90
7399;DHT22;3740;50.700;7.184;2022-09-13T05:59:28;18.30;99.90
7399;DHT22;3740;50.700;7.184;2022-09-13T06:02:14;18.40;99.90
7399;DHT22;3740;50.700;7.184;2022-09-13T06:05:00;18.40;99.90
7399;DHT22;3740;50.700;7.184;2022-09-13T06:07:46;18.40;99.90
7399;DHT22;3740;50.700;7.184;2022-09-13T06:10:32;18.40;99.90
7399;DHT22;3740;50.700;7.184;2022-09-13T06:13:18;18.40;99.90
7399;DHT22;3740;50.700;7.184;2022-09-13T06:16:06;18.40;99.90
7399;DHT22;3740;50.700;7.184;2022-09-13T06:18:52;18.40;99.90
7399;DHT22;3740;50.700;7.184;2022-09-13T06:21:38;18.30;99.90
7399;DHT22;3740;50.700;7.184;2022-09-13T06:24:24;18.30;99.90
7399;DHT22;3740;50.700;7.184;2022-09-13T06:27:10;18.30;99.90
7399;DHT22;3740;50.700;7.184;2022-09-13T06:29:56;18.30;99.90
7399;DHT22;3740;50.700;7.184;2022-09-13T06:32:41;18.40;99.90
7399;DHT22;3740;50.700;7.184;2022-09-13T06:35:27;18.40;99.90
7399;DHT22;3740;50.700;7.184;2022-09-13T06:38:13;18.50;99.90
7399;DHT22;3740;50.700;7.184;2022-09-13T06:41:03;18.50;99.90
7399;DHT22;3740;50.700;7.184;2022-09-13T06:43:57;18.60;99.90
7399;DHT22;3740;50.700;7.184;2022-09-13T06:46:43;18.70;99.90
7399;DHT22;3740;50.700;7.184;2022-09-13T06:49:29;18.70;99.90
7399;DHT22;3740;50.700;7.184;2022-09-13T06:52:16;18.80;99.90
7399;DHT22;3740;50.700;7.184;2022-09-13T06:55:02;18.80;99.90
7399;DHT22;3740;50.700;7.184;2022-09-13T06:57:48;18.90;99.90
7399;DHT22;3740;50.700;7.184;2022-09-13T07:00:33;18.90;99.90
7399;DHT22;3740;50.700;7.184;2022-09-13T07:03:19;19.00;99.90
7399;DHT22;3740;50.700;7.184;2022-09-13T07:06:10;19.00;99.90
7399;DHT22;3740;50.700;7.184;2022-09-13T07:08:58;19.00;99.90
7399;DHT22;3740;50.700;7.184;2022-09-13T07:11:45;19.00;99.90
7399;DHT22;3740;50.700;7.184;2022-09-13T07:14:31;19.00;99.90
7399;DHT22;3740;50.700;7.184;2022-09-13T07:17:17;19.10;99.90
7399;DHT22;3740;50.700;7.184;2022-09-13T07:20:03;19.10;99.90
7399;DHT22;3740;50.700;7.184;2022-09-13T07:22:51;19.20;99.90
7399;DHT22;3740;50.700;7.184;2022-09-13T07:25:37;19.20;99.90
7399;DHT22;3740;50.700;7.184;2022-09-13T07:28:23;19.20;99.90
7399;DHT22;3740;50.700;7.184;2022-09-13T07:31:19;19.30;99.90
7399;DHT22;3740;50.700;7.184;2022-09-13T07:34:07;19.30;99.90
7399;DHT22;3740;50.700;7.184;2022-09-13T07:36:56;19.40;99.90
7399;DHT22;3740;50.700;7.184;2022-09-13T07:39:42;19.50;99.90
7399;DHT22;3740;50.700;7.184;2022-09-13T07:42:27;19.50;99.90
7399;DHT22;3740;50.700;7.184;2022-09-13T07:45:13;19.60;99.90
7399;DHT22;3740;50.700;7.184;2022-09-13T07:47:59;19.70;99.90
7399;DHT22;3740;50.700;7.184;2022-09-13T07:50:56;19.70;99.90
7399;DHT22;3740;50.700;7.184;2022-09-13T07:53:43;19.80;99.90
7399;DHT22;3740;50.700;7.184;2022-09-13T07:56:32;19.80;99.90
7399;DHT22;3740;50.700;7.184;2022-09-13T07:59:19;19.90;99.90
7399;DHT22;3740;50.700;7.184;2022-09-13T08:02:04;20.00;99.90
7399;DHT22;3740;50.700;7.184;2022-09-13T08:04:50;20.10;99.90
7399;DHT22;3740;50.700;7.184;2022-09-13T08:07:36;20.10;99.90
7399;DHT22;3740;50.700;7.184;2022-09-13T08:10:22;20.20;99.90
7399;DHT22;3740;50.700;7.184;2022-09-13T08:13:08;20.20;99.90
7399;DHT22;3740;50.700;7.184;2022-09-13T08:15:54;20.20;99.90
7399;DHT22;3740;50.700;7.184;2022-09-13T08:18:44;20.20;99.90
7399;DHT22;3740;50.700;7.184;2022-09-13T08:21:35;20.20;99.90
7399;DHT22;3740;50.700;7.184;2022-09-13T08:24:22;20.40;99.90
7399;DHT22;3740;50.700;7.184;2022-09-13T08:27:08;20.50;99.90
7399;DHT22;3740;50.700;7.184;2022-09-13T08:29:54;20.60;99.90
7399;DHT22;3740;50.700;7.184;2022-09-13T08:32:40;20.80;99.90
7399;DHT22;3740;50.700;7.184;2022-09-13T08:35:25;20.90;99.90
7399;DHT22;3740;50.700;7.184;2022-09-13T08:38:11;21.00;99.90
7399;DHT22;3740;50.700;7.184;2022-09-13T08:41:25;21.00;99.90
7399;DHT22;3740;50.700;7.184;2022-09-13T08:44:30;21.20;99.90
7399;DHT22;3740;50.700;7.184;2022-09-13T08:47:37;21.20;99.90
7399;DHT22;3740;50.700;7.184;2022-09-13T08:50:32;21.30;99.90
7399;DHT22;3740;50.700;7.184;2022-09-13T08:53:23;21.50;99.90
7399;DHT22;3740;50.700;7.184;2022-09-13T08:56:17;21.60;99.90
7399;DHT22;3740;50.700;7.184;2022-09-13T09:05:14;21.90;99.90
7399;DHT22;3740;50.700;7.184;2022-09-13T09:08:09;21.90;99.90
7399;DHT22;3740;50.700;7.184;2022-09-13T09:11:02;21.90;99.90
7399;DHT22;3740;50.700;7.184;2022-09-13T09:14:04;21.80;99.90
7399;DHT22;3740;50.700;7.184;2022-09-13T09:16:59;21.80;99.90
7399;DHT22;3740;50.700;7.184;2022-09-13T09:20:15;21.80;99.90
7399;DHT22;3740;50.700;7.184;2022-09-13T09:26:20;21.90;99.90
7399;DHT22;3740;50.700;7.184;2022-09-13T09:29:17;21.90;99.90
7399;DHT22;3740;50.700;7.184;2022-09-13T09:41:32;22.50;99.90
7399;DHT22;3740;50.700;7.184;2022-09-13T09:44:22;22.80;99.90
7399;DHT22;3740;50.700;7.184;2022-09-13T09:50:12;23.00;99.90
7399;DHT22;3740;50.700;7.184;2022-09-13T09:56:11;23.40;99.90
7399;DHT22;3740;50.700;7.184;2022-09-13T09:59:00;23.60;99.90
7399;DHT22;3740;50.700;7.184;2022-09-13T10:01:47;23.80;99.90
7399;DHT22;3740;50.700;7.184;2022-09-13T10:04:33;24.10;99.90
7399;DHT22;3740;50.700;7.184;2022-09-13T10:07:25;24.30;99.90
7399;DHT22;3740;50.700;7.184;2022-09-13T10:10:39;24.50;99.90
7399;DHT22;3740;50.700;7.184;2022-09-13T10:13:27;24.60;99.90
7399;DHT22;3740;50.700;7.184;2022-09-13T10:16:24;24.90;99.90
7399;DHT22;3740;50.700;7.184;2022-09-13T10:19:24;25.10;99.90
7399;DHT22;3740;50.700;7.184;2022-09-13T10:22:11;25.30;99.90
7399;DHT22;3740;50.700;7.184;2022-09-13T10:28:04;25.80;99.90
7399;DHT22;3740;50.700;7.184;2022-09-13T10:31:01;25.90;99.90
7399;DHT22;3740;50.700;7.184;2022-09-13T10:36:35;26.40;99.90
7399;DHT22;3740;50.700;7.184;2022-09-13T10:39:23;26.50;99.10
7399;DHT22;3740;50.700;7.184;2022-09-13T10:42:09;26.70;99.20
7399;DHT22;3740;50.700;7.184;2022-09-13T10:45:02;27.10;98.50
7399;DHT22;3740;50.700;7.184;2022-09-13T10:47:58;27.30;97.30
7399;DHT22;3740;50.700;7.184;2022-09-13T10:51:04;27.60;96.60
7399;DHT22;3740;50.700;7.184;2022-09-13T10:56:51;27.90;95.90
7399;DHT22;3740;50.700;7.184;2022-09-13T10:59:37;28.20;95.20
7399;DHT22;3740;50.700;7.184;2022-09-13T11:08:57;29.10;92.80
7399;DHT22;3740;50.700;7.184;2022-09-13T11:15:00;28.90;93.70
7399;DHT22;3740;50.700;7.184;2022-09-13T11:18:08;28.80;94.30
7399;DHT22;3740;50.700;7.184;2022-09-13T11:24:35;28.80;94.00
7399;DHT22;3740;50.700;7.184;2022-09-13T11:27:40;29.50;93.00
7399;DHT22;3740;50.700;7.184;2022-09-13T11:30:33;30.90;90.70
7399;DHT22;3740;50.700;7.184;2022-09-13T11:33:44;32.50;87.80
7399;DHT22;3740;50.700;7.184;2022-09-13T11:40:19;34.40;76.30
7399;DHT22;3740;50.700;7.184;2022-09-13T11:43:19;32.80;75.10
7399;DHT22;3740;50.700;7.184;2022-09-13T11:53:00;30.70;81.80
7399;DHT22;3740;50.700;7.184;2022-09-13T11:55:54;31.90;80.70
7399;DHT22;3740;50.700;7.184;2022-09-13T11:58:53;33.50;75.20
7399;DHT22;3740;50.700;7.184;2022-09-13T12:01:45;34.10;72.90
7399;DHT22;3740;50.700;7.184;2022-09-13T12:04:59;34.80;72.30
7399;DHT22;3740;50.700;7.184;2022-09-13T12:08:11;34.80;73.10
7399;DHT22;3740;50.700;7.184;2022-09-13T12:13:58;33.00;73.30
7399;DHT22;3740;50.700;7.184;2022-09-13T12:16:54;33.00;73.80
7399;DHT22;3740;50.700;7.184;2022-09-13T12:19:45;33.60;72.40
7399;DHT22;3740;50.700;7.184;2022-09-13T12:22:35;34.10;70.20
7399;DHT22;3740;50.700;7.184;2022-09-13T12:25:23;34.30;70.50
7399;DHT22;3740;50.700;7.184;2022-09-13T12:28:23;33.90;69.30
7399;DHT22;3740;50.700;7.184;2022-09-13T12:31:20;33.40;71.00
7399;DHT22;3740;50.700;7.184;2022-09-13T12:34:10;33.00;71.60
7399;DHT22;3740;50.700;7.184;2022-09-13T12:52:59;29.00;79.20
7399;DHT22;3740;50.700;7.184;2022-09-13T12:59:01;29.00;81.40
7399;DHT22;3740;50.700;7.184;2022-09-13T13:01:49;29.00;81.40
7399;DHT22;3740;50.700;7.184;2022-09-13T13:07:23;29.00;81.20
7399;DHT22;3740;50.700;7.184;2022-09-13T13:10:33;29.30;82.20
7399;DHT22;3740;50.700;7.184;2022-09-13T13:13:23;29.80;81.90
7399;DHT22;3740;50.700;7.184;2022-09-13T13:19:32;30.40;79.00
7399;DHT22;3740;50.700;7.184;2022-09-13T13:23:03;30.20;81.40
7399;DHT22;3740;50.700;7.184;2022-09-13T13:25:57;29.60;82.00
7399;DHT22;3740;50.700;7.184;2022-09-13T13:31:34;28.80;83.80
7399;DHT22;3740;50.700;7.184;2022-09-13T13:34:29;28.80;83.10
7399;DHT22;3740;50.700;7.184;2022-09-13T13:40:19;28.40;83.40
7399;DHT22;3740;50.700;7.184;2022-09-13T13:43:34;28.20;85.40
7399;DHT22;3740;50.700;7.184;2022-09-13T13:46:26;28.10;86.00
7399;DHT22;3740;50.700;7.184;2022-09-13T13:55:29;27.90;87.80
7399;DHT22;3740;50.700;7.184;2022-09-13T14:01:03;28.20;88.20
7399;DHT22;3740;50.700;7.184;2022-09-13T14:07:11;28.80;85.60
7399;DHT22;3740;50.700;7.184;2022-09-13T14:10:09;28.80;85.30
7399;DHT22;3740;50.700;7.184;2022-09-13T14:19:25;28.40;84.80
7399;DHT22;3740;50.700;7.184;2022-09-13T14:22:23;28.30;85.20
7399;DHT22;3740;50.700;7.184;2022-09-13T14:28:05;27.80;89.30
7399;DHT22;3740;50.700;7.184;2022-09-13T14:30:54;27.50;88.70
7399;DHT22;3740;50.700;7.184;2022-09-13T14:33:41;27.50;90.10
7399;DHT22;3740;50.700;7.184;2022-09-13T14:36:26;27.30;90.60
7399;DHT22;3740;50.700;7.184;2022-09-13T14:39:13;27.00;90.50
7399;DHT22;3740;50.700;7.184;2022-09-13T14:42:13;26.90;91.00
7399;DHT22;3740;50.700;7.184;2022-09-13T14:44:59;26.80;91.70
7399;DHT22;3740;50.700;7.184;2022-09-13T14:50:46;26.50;92.80
7399;DHT22;3740;50.700;7.184;2022-09-13T14:53:34;26.30;93.00
7399;DHT22;3740;50.700;7.184;2022-09-13T14:59:23;25.90;96.20
7399;DHT22;3740;50.700;7.184;2022-09-13T15:05:11;25.60;98.00
7399;DHT22;3740;50.700;7.184;2022-09-13T15:07:58;25.50;98.80
7399;DHT22;3740;50.700;7.184;2022-09-13T15:10:44;25.40;99.30
7399;DHT22;3740;50.700;7.184;2022-09-13T15:13:30;25.30;99.90
7399;DHT22;3740;50.700;7.184;2022-09-13T15:16:24;25.20;99.90
7399;DHT22;3740;50.700;7.184;2022-09-13T15:19:16;25.20;99.90
7399;DHT22;3740;50.700;7.184;2022-09-13T15:22:17;26.30;99.90
7399;DHT22;3740;50.700;7.184;2022-09-13T15:25:04;25.10;99.90
7399;DHT22;3740;50.700;7.184;2022-09-13T15:27:51;25.10;99.90
7399;DHT22;3740;50.700;7.184;2022-09-13T15:30:40;25.00;99.90
7399;DHT22;3740;50.700;7.184;2022-09-13T15:33:30;25.00;99.90
7399;DHT22;3740;50.700;7.184;2022-09-13T15:41:59;24.50;99.90
7399;DHT22;3740;50.700;7.184;2022-09-13T15:44:45;24.50;99.90
7399;DHT22;3740;50.700;7.184;2022-09-13T15:47:31;24.40;99.90
7399;DHT22;3740;50.700;7.184;2022-09-13T15:50:28;24.30;99.90
7399;DHT22;3740;50.700;7.184;2022-09-13T15:53:16;24.30;99.90
7399;DHT22;3740;50.700;7.184;2022-09-13T15:56:02;24.20;99.90
7399;DHT22;3740;50.700;7.184;2022-09-13T15:58:49;24.10;99.90
7399;DHT22;3740;50.700;7.184;2022-09-13T16:01:34;24.00;99.90
7399;DHT22;3740;50.700;7.184;2022-09-13T16:04:20;23.90;99.90
7399;DHT22;3740;50.700;7.184;2022-09-13T16:07:07;23.80;99.90
7399;DHT22;3740;50.700;7.184;2022-09-13T16:09:53;23.70;99.90
7399;DHT22;3740;50.700;7.184;2022-09-13T16:12:39;23.70;99.90
7399;DHT22;3740;50.700;7.184;2022-09-13T16:15:25;23.70;99.90
7399;DHT22;3740;50.700;7.184;2022-09-13T16:18:14;23.60;99.90
7399;DHT22;3740;50.700;7.184;2022-09-13T16:21:01;23.50;99.90
7399;DHT22;3740;50.700;7.184;2022-09-13T16:23:47;23.40;99.90
7399;DHT22;3740;50.700;7.184;2022-09-13T16:26:33;23.30;99.90
7399;DHT22;3740;50.700;7.184;2022-09-13T16:29:19;23.30;99.90
7399;DHT22;3740;50.700;7.184;2022-09-13T16:32:06;23.30;99.90
7399;DHT22;3740;50.700;7.184;2022-09-13T16:34:51;23.20;99.90
7399;DHT22;3740;50.700;7.184;2022-09-13T16:37:39;23.10;99.90
7399;DHT22;3740;50.700;7.184;2022-09-13T16:40:25;23.00;99.90
7399;DHT22;3740;50.700;7.184;2022-09-13T16:43:11;22.80;99.90
7399;DHT22;3740;50.700;7.184;2022-09-13T16:45:58;22.70;99.90
7399;DHT22;3740;50.700;7.184;2022-09-13T16:48:44;22.50;99.90
7399;DHT22;3740;50.700;7.184;2022-09-13T16:51:30;22.40;99.90
7399;DHT22;3740;50.700;7.184;2022-09-13T16:54:16;22.30;99.90
7399;DHT22;3740;50.700;7.184;2022-09-13T16:57:04;22.10;99.90
7399;DHT22;3740;50.700;7.184;2022-09-13T16:59:52;22.00;99.90
7399;DHT22;3740;50.700;7.184;2022-09-13T17:02:38;21.90;99.90
7399;DHT22;3740;50.700;7.184;2022-09-13T17:05:24;21.80;99.90
7399;DHT22;3740;50.700;7.184;2022-09-13T17:08:10;21.70;99.90
7399;DHT22;3740;50.700;7.184;2022-09-13T17:10:56;21.60;99.90
7399;DHT22;3740;50.700;7.184;2022-09-13T17:13:42;21.60;99.90
7399;DHT22;3740;50.700;7.184;2022-09-13T17:16:31;21.60;99.90
7399;DHT22;3740;50.700;7.184;2022-09-13T17:19:19;21.50;99.90
7399;DHT22;3740;50.700;7.184;2022-09-13T17:22:05;21.50;99.90
7399;DHT22;3740;50.700;7.184;2022-09-13T17:24:52;21.40;99.90
7399;DHT22;3740;50.700;7.184;2022-09-13T17:27:38;21.40;99.90
7399;DHT22;3740;50.700;7.184;2022-09-13T17:30:24;21.40;99.90
7399;DHT22;3740;50.700;7.184;2022-09-13T17:33:10;21.40;99.90
7399;DHT22;3740;50.700;7.184;2022-09-13T17:36:02;21.30;99.90
7399;DHT22;3740;50.700;7.184;2022-09-13T17:38:54;21.30;99.90
7399;DHT22;3740;50.700;7.184;2022-09-13T17:41:41;21.30;99.90
7399;DHT22;3740;50.700;7.184;2022-09-13T17:44:27;21.30;99.90
7399;DHT22;3740;50.700;7.184;2022-09-13T17:47:12;21.20;99.90
7399;DHT22;3740;50.700;7.184;2022-09-13T17:49:58;21.20;99.90
7399;DHT22;3740;50.700;7.184;2022-09-13T17:52:45;21.20;99.90
7399;DHT22;3740;50.700;7.184;2022-09-13T17:55:30;21.20;99.90
7399;DHT22;3740;50.700;7.184;2022-09-13T17:58:16;21.20;99.90
7399;DHT22;3740;50.700;7.184;2022-09-13T18:01:04;21.20;99.90
7399;DHT22;3740;50.700;7.184;2022-09-13T18:03:53;21.20;99.90
7399;DHT22;3740;50.700;7.184;2022-09-13T18:06:38;21.00;99.90
7399;DHT22;3740;50.700;7.184;2022-09-13T18:09:27;21.10;99.90
7399;DHT22;3740;50.700;7.184;2022-09-13T18:12:13;21.10;99.90
7399;DHT22;3740;50.700;7.184;2022-09-13T18:14:58;21.10;99.90
7399;DHT22;3740;50.700;7.184;2022-09-13T18:17:45;21.10;99.90
7399;DHT22;3740;50.700;7.184;2022-09-13T18:20:31;21.10;99.90
7399;DHT22;3740;50.700;7.184;2022-09-13T18:23:17;21.10;99.90
7399;DHT22;3740;50.700;7.184;2022-09-13T18:26:14;21.10;99.90
7399;DHT22;3740;50.700;7.184;2022-09-13T18:29:02;21.00;99.90
7399;DHT22;3740;50.700;7.184;2022-09-13T18:31:48;21.30;99.90
7399;DHT22;3740;50.700;7.184;2022-09-13T18:34:34;21.00;99.90
7399;DHT22;3740;50.700;7.184;2022-09-13T18:37:20;21.00;99.90
7399;DHT22;3740;50.700;7.184;2022-09-13T18:40:06;21.00;99.90
7399;DHT22;3740;50.700;7.184;2022-09-13T18:42:58;21.00;99.90
7399;DHT22;3740;50.700;7.184;2022-09-13T18:45:53;20.90;99.90
7399;DHT22;3740;50.700;7.184;2022-09-13T18:48:43;20.90;99.90
7399;DHT22;3740;50.700;7.184;2022-09-13T18:51:32;20.90;99.90
7399;DHT22;3740;50.700;7.184;2022-09-13T18:54:18;20.90;99.90
7399;DHT22;3740;50.700;7.184;2022-09-13T18:57:04;20.90;99.90
7399;DHT22;3740;50.700;7.184;2022-09-13T18:59:50;20.90;99.90
7399;DHT22;3740;50.700;7.184;2022-09-13T19:02:36;20.90;99.90
7399;DHT22;3740;50.700;7.184;2022-09-13T19:05:26;20.90;99.90
7399;DHT22;3740;50.700;7.184;2022-09-13T19:08:12;20.80;99.90
7399;DHT22;3740;50.700;7.184;2022-09-13T19:10:58;20.80;99.90
7399;DHT22;3740;50.700;7.184;2022-09-13T19:13:44;20.80;99.90
7399;DHT22;3740;50.700;7.184;2022-09-13T19:16:30;20.80;99.90
7399;DHT22;3740;50.700;7.184;2022-09-13T19:19:16;20.70;99.90
7399;DHT22;3740;50.700;7.184;2022-09-13T19:22:02;20.70;99.90
7399;DHT22;3740;50.700;7.184;2022-09-13T19:24:48;20.70;99.90
7399;DHT22;3740;50.700;7.184;2022-09-13T19:27:36;20.70;99.90
7399;DHT22;3740;50.700;7.184;2022-09-13T19:30:22;20.60;99.90
7399;DHT22;3740;50.700;7.184;2022-09-13T19:33:08;20.60;99.90
7399;DHT22;3740;50.700;7.184;2022-09-13T19:35:54;20.60;99.90
7399;DHT22;3740;50.700;7.184;2022-09-13T19:38:40;20.60;99.90
7399;DHT22;3740;50.700;7.184;2022-09-13T19:41:27;20.60;99.90
7399;DHT22;3740;50.700;7.184;2022-09-13T19:44:14;20.60;99.90
7399;DHT22;3740;50.700;7.184;2022-09-13T19:47:00;20.60;99.90
7399;DHT22;3740;50.700;7.184;2022-09-13T19:49:46;20.60;99.90
7399;DHT22;3740;50.700;7.184;2022-09-13T19:52:34;20.60;99.90
7399;DHT22;3740;50.700;7.184;2022-09-13T19:55:20;20.60;99.90
7399;DHT22;3740;50.700;7.184;2022-09-13T19:58:05;20.50;99.90
7399;DHT22;3740;50.700;7.184;2022-09-13T20:01:03;20.50;99.90
7399;DHT22;3740;50.700;7.184;2022-09-13T20:03:52;20.50;99.90
7399;DHT22;3740;50.700;7.184;2022-09-13T20:06:46;20.40;99.90
7399;DHT22;3740;50.700;7.184;2022-09-13T20:09:32;20.40;99.90
7399;DHT22;3740;50.700;7.184;2022-09-13T20:12:21;20.40;99.90
7399;DHT22;3740;50.700;7.184;2022-09-13T20:15:08;20.40;99.90
7399;DHT22;3740;50.700;7.184;2022-09-13T20:17:54;20.30;99.90
7399;DHT22;3740;50.700;7.184;2022-09-13T20:20:41;20.30;99.90
7399;DHT22;3740;50.700;7.184;2022-09-13T20:23:28;20.30;99.90
7399;DHT22;3740;50.700;7.184;2022-09-13T20:26:16;20.30;99.90
7399;DHT22;3740;50.700;7.184;2022-09-13T20:29:04;20.30;99.90
7399;DHT22;3740;50.700;7.184;2022-09-13T20:31:50;20.30;99.90
7399;DHT22;3740;50.700;7.184;2022-09-13T20:34:36;20.30;99.90
7399;DHT22;3740;50.700;7.184;2022-09-13T20:37:23;20.30;99.90
7399;DHT22;3740;50.700;7.184;2022-09-13T20:40:09;20.20;99.90
7399;DHT22;3740;50.700;7.184;2022-09-13T20:42:56;20.30;99.90
7399;DHT22;3740;50.700;7.184;2022-09-13T20:45:41;20.20;99.90
7399;DHT22;3740;50.700;7.184;2022-09-13T20:48:27;20.20;99.90
7399;DHT22;3740;50.700;7.184;2022-09-13T20:51:19;20.20;99.90
7399;DHT22;3740;50.700;7.184;2022-09-13T20:54:05;20.30;99.90
7399;DHT22;3740;50.700;7.184;2022-09-13T20:56:51;20.20;99.90
7399;DHT22;3740;50.700;7.184;2022-09-13T20:59:37;20.20;99.90
7399;DHT22;3740;50.700;7.184;2022-09-13T21:02:23;20.20;99.90
7399;DHT22;3740;50.700;7.184;2022-09-13T21:05:11;20.20;99.90
7399;DHT22;3740;50.700;7.184;2022-09-13T21:07:58;20.20;99.90
7399;DHT22;3740;50.700;7.184;2022-09-13T21:11:03;20.20;99.90
7399;DHT22;3740;50.700;7.184;2022-09-13T21:13:52;20.20;99.90
7399;DHT22;3740;50.700;7.184;2022-09-13T21:16:39;20.20;99.90
7399;DHT22;3740;50.700;7.184;2022-09-13T21:19:25;20.20;99.90
7399;DHT22;3740;50.700;7.184;2022-09-13T21:22:11;20.10;99.90
7399;DHT22;3740;50.700;7.184;2022-09-13T21:24:57;20.10;99.90